createdAt,value
2019-03-10T00:00:29.389Z,10.50
2019-03-10T00:05:33.065Z,10.75
2019-03-10T00:10:36.453Z,10.20
2019-03-10T00:15:41.424Z,7.53
2019-03-10T00:20:45.472Z,9.48
2019-03-10T00:25:48.793Z,8.65
2019-03-10T00:30:54.338Z,12.03
2019-03-10T00:35:57.731Z,8.25
2019-03-10T00:41:21.316Z,8.58
2019-03-10T00:47:05.280Z,8.73
2019-03-10T00:52:26.661Z,7.08
2019-03-10T00:57:34.732Z,7.22
2019-03-10T01:02:39.169Z,6.75
2019-03-10T01:07:42.486Z,8.75
2019-03-10T01:12:45.799Z,7.40
2019-03-10T01:17:49.261Z,9.05
2019-03-10T01:22:52.647Z,6.87
2019-03-10T01:27:56.589Z,3.37
2019-03-10T01:33:06.697Z,3.52
2019-03-10T01:38:10.085Z,4.03
2019-03-10T01:43:13.470Z,3.50
2019-03-10T01:48:17.139Z,4.87
2019-03-10T01:53:25.536Z,3.60
2019-03-10T01:58:25.866Z,6.30
2019-03-10T02:03:29.366Z,6.35
2019-03-10T02:08:32.770Z,6.92
2019-03-10T02:13:36.101Z,3.72
2019-03-10T02:18:39.673Z,4.78
2019-03-10T02:23:43.136Z,4.42
2019-03-10T02:28:46.497Z,4.50
2019-03-10T02:33:50.593Z,5.25
2019-03-10T02:38:53.971Z,3.65
2019-03-10T02:43:57.284Z,5.47
2019-03-10T02:49:01.846Z,5.45
2019-03-10T02:54:05.236Z,7.87
2019-03-10T02:59:11.163Z,6.17
2019-03-10T03:04:15.934Z,5.90
2019-03-10T03:09:19.346Z,6.78
2019-03-10T03:14:23.229Z,8.18
2019-03-10T03:19:26.601Z,4.60
2019-03-10T03:24:29.971Z,11.40
2019-03-10T03:29:33.503Z,7.80
2019-03-10T03:34:36.819Z,9.88
2019-03-10T03:39:40.928Z,8.40
2019-03-10T03:44:44.305Z,9.25
2019-03-10T03:49:47.700Z,5.03
2019-03-10T03:54:51.209Z,10.48
2019-03-10T03:59:55.371Z,8.85
2019-03-10T04:04:58.768Z,9.13
2019-03-10T04:10:02.590Z,6.55
2019-03-10T04:15:06.542Z,6.45
2019-03-10T04:20:10.184Z,9.53
2019-03-10T04:25:15.059Z,11.93
2019-03-10T04:30:18.466Z,8.85
2019-03-10T04:35:21.795Z,11.03
2019-03-10T04:40:25.168Z,11.73
2019-03-10T04:45:28.671Z,13.05
2019-03-10T04:50:31.979Z,11.05
2019-03-10T04:55:39.940Z,14.43
2019-03-10T05:00:45.655Z,14.87
2019-03-10T05:05:50.784Z,11.15
2019-03-10T05:10:54.135Z,15.23
2019-03-10T05:15:57.562Z,12.85
2019-03-10T05:21:00.980Z,14.38
2019-03-10T05:26:04.435Z,8.08
2019-03-10T05:31:08.359Z,11.73
2019-03-10T05:36:17.089Z,12.30
2019-03-10T05:41:20.400Z,13.03
2019-03-10T05:46:24.214Z,11.12
2019-03-10T05:51:27.844Z,10.30
2019-03-10T05:56:31.770Z,7.20
2019-03-10T06:01:36.060Z,6.78
2019-03-10T06:06:39.645Z,8.08
2019-03-10T06:11:43.009Z,5.95
2019-03-10T06:16:46.318Z,7.53
2019-03-10T06:21:49.698Z,9.15
2019-03-10T06:26:53.015Z,8.20
2019-03-10T06:31:56.308Z,8.00
2019-03-10T06:36:59.621Z,9.18
2019-03-10T06:42:03.025Z,11.78
2019-03-10T06:47:13.117Z,12.90
2019-03-10T06:52:16.783Z,10.35
2019-03-10T06:57:20.184Z,11.00
2019-03-10T07:02:24.381Z,9.03
2019-03-10T07:07:27.962Z,7.65
2019-03-10T07:12:31.482Z,8.33
2019-03-10T07:17:35.352Z,7.67
2019-03-10T07:22:40.325Z,5.22
2019-03-10T07:27:48.675Z,6.45
2019-03-10T07:32:53.693Z,7.70
2019-03-10T07:38:00.179Z,10.63
2019-03-10T07:43:05.213Z,10.98
2019-03-10T07:48:10.256Z,9.90
2019-03-10T07:53:27.169Z,10.50
2019-03-10T07:58:32.719Z,9.70
2019-03-10T08:03:48.905Z,9.10
2019-03-10T08:09:02.174Z,10.55
2019-03-10T08:14:24.984Z,13.15
2019-03-10T08:19:36.271Z,14.05
2019-03-10T08:24:59.134Z,11.38
2019-03-10T08:30:06.848Z,14.60
2019-03-10T08:35:29.984Z,9.93
2019-03-10T08:40:36.238Z,8.05
2019-03-10T08:45:59.245Z,11.88
2019-03-10T08:51:04.259Z,11.48
2019-03-10T08:56:30.585Z,7.47
2019-03-10T09:01:42.044Z,9.40
2019-03-10T09:06:49.181Z,7.65
2019-03-10T09:12:00.147Z,7.87
2019-03-10T09:17:17.064Z,9.35
2019-03-10T09:22:23.417Z,14.07
2019-03-10T09:27:46.173Z,7.03
2019-03-10T09:32:51.222Z,8.80
2019-03-10T09:38:03.774Z,8.25
2019-03-10T09:43:25.668Z,11.78
2019-03-10T09:48:34.692Z,4.83
2019-03-10T09:53:47.140Z,10.17
2019-03-10T09:58:53.953Z,5.72
2019-03-10T10:04:04.723Z,6.97
2019-03-10T10:09:15.438Z,9.35
2019-03-10T10:14:31.366Z,13.32
2019-03-10T10:19:53.294Z,15.68
2019-03-10T10:25:02.599Z,10.93
2019-03-10T10:30:11.594Z,7.15
2019-03-10T10:35:32.952Z,8.73
2019-03-10T10:40:46.819Z,8.43
2019-03-10T10:45:53.562Z,8.65
2019-03-10T10:51:01.669Z,7.75
2019-03-10T10:56:16.003Z,11.97
2019-03-10T11:01:33.005Z,6.33
2019-03-10T11:06:38.003Z,8.33
2019-03-10T11:11:48.905Z,8.75
2019-03-10T11:17:10.385Z,7.45
2019-03-10T11:22:15.430Z,5.72
2019-03-10T11:27:29.604Z,5.95
2019-03-10T11:32:44.088Z,8.73
2019-03-10T11:37:49.165Z,18.98
2019-03-10T11:43:08.103Z,5.85
2019-03-10T11:48:29.702Z,9.73
2019-03-10T11:53:43.879Z,8.33
2019-03-10T11:58:52.632Z,8.20
2019-03-10T12:04:10.527Z,7.40
2019-03-10T12:09:18.501Z,7.08
2019-03-10T12:14:23.522Z,9.75
2019-03-10T12:19:26.902Z,6.83
2019-03-10T12:24:30.236Z,7.80
2019-03-10T12:29:33.597Z,6.47
2019-03-10T12:34:37.084Z,8.10
2019-03-10T12:39:40.404Z,6.10
2019-03-10T12:44:43.836Z,6.05
2019-03-10T12:49:47.522Z,6.87
2019-03-10T12:54:51.017Z,7.40
2019-03-10T12:59:54.371Z,8.28
2019-03-10T13:04:57.768Z,8.05
2019-03-10T13:10:02.922Z,6.37
2019-03-10T13:15:09.651Z,10.13
2019-03-10T13:20:13.116Z,7.67
2019-03-10T13:25:16.987Z,20.37
2019-03-10T13:30:23.445Z,9.55
2019-03-10T13:35:26.857Z,11.00
2019-03-10T13:40:30.177Z,10.40
2019-03-10T13:45:33.677Z,10.18
2019-03-10T13:50:37.052Z,7.90
2019-03-10T13:55:45.017Z,8.20
2019-03-10T14:00:48.367Z,11.83
2019-03-10T14:05:51.775Z,11.43
2019-03-10T14:10:57.018Z,9.08
2019-03-10T14:16:00.463Z,11.33
2019-03-10T14:21:04.557Z,9.78
2019-03-10T14:26:08.574Z,9.20
2019-03-10T14:31:12.340Z,9.23
2019-03-10T14:36:15.787Z,12.40
2019-03-10T14:41:19.205Z,20.02
2019-03-10T14:46:24.618Z,13.78
2019-03-10T14:51:28.124Z,10.88
2019-03-10T14:56:32.621Z,18.48
2019-03-10T15:01:38.637Z,15.18
2019-03-10T15:06:41.988Z,21.60
2019-03-10T15:11:45.645Z,6.85
2019-03-10T15:16:48.953Z,8.58
2019-03-10T15:21:52.577Z,6.85
2019-03-10T15:26:56.569Z,7.53
2019-03-10T15:31:59.924Z,4.65
2019-03-10T15:37:05.611Z,7.10
2019-03-10T15:42:09.029Z,8.53
2019-03-10T15:47:24.071Z,10.45
2019-03-10T15:52:27.745Z,11.45
2019-03-10T15:57:32.911Z,11.68
2019-03-10T16:02:36.506Z,13.13
2019-03-10T16:07:40.015Z,14.38
2019-03-10T16:12:43.382Z,7.05
2019-03-10T16:17:48.424Z,10.18
2019-03-10T16:22:55.200Z,9.83
2019-03-10T16:27:58.392Z,9.05
2019-03-10T16:33:01.942Z,9.70
2019-03-10T16:38:06.946Z,10.65
2019-03-10T16:43:12.212Z,10.30
2019-03-10T16:48:15.623Z,10.63
2019-03-10T16:53:19.812Z,9.73
2019-03-10T16:58:23.426Z,9.95
2019-03-10T17:03:30.227Z,10.20
2019-03-10T17:08:33.960Z,6.97
2019-03-10T17:13:38.637Z,9.65
2019-03-10T17:18:41.965Z,9.33
2019-03-10T17:23:45.929Z,11.43
2019-03-10T17:28:49.328Z,7.67
2019-03-10T17:33:53.308Z,7.50
2019-03-10T17:38:56.723Z,10.70
2019-03-10T17:44:00.634Z,8.65
2019-03-10T17:49:06.104Z,9.73
2019-03-10T17:54:11.999Z,12.33
2019-03-10T17:59:18.477Z,13.15
2019-03-10T18:04:24.664Z,13.83
2019-03-10T18:09:30.184Z,14.60
2019-03-10T18:14:34.369Z,13.48
2019-03-10T18:19:37.915Z,14.73
2019-03-10T18:24:41.393Z,12.98
2019-03-10T18:29:45.025Z,17.12
2019-03-10T18:34:48.427Z,13.40
2019-03-10T18:39:53.117Z,17.42
2019-03-10T18:44:57.499Z,18.98
2019-03-10T18:50:01.048Z,17.50
2019-03-10T18:55:08.760Z,14.25
2019-03-10T19:00:23.961Z,16.00
2019-03-10T19:05:27.316Z,16.00
2019-03-10T19:10:38.210Z,18.17
2019-03-10T19:15:44.621Z,16.12
2019-03-10T19:20:49.445Z,19.92
2019-03-10T19:25:54.522Z,24.15
2019-03-10T19:30:59.257Z,28.73
2019-03-10T19:36:02.682Z,27.87
2019-03-10T19:41:06.157Z,28.12
2019-03-10T19:46:11.794Z,23.35
2019-03-10T19:51:17.263Z,24.25
2019-03-10T19:56:22.692Z,27.50
2019-03-10T20:01:26.116Z,25.82
2019-03-10T20:06:29.473Z,29.40
2019-03-10T20:11:35.022Z,30.10
2019-03-10T20:16:38.338Z,32.70
2019-03-10T20:21:41.697Z,27.70
2019-03-10T20:26:45.153Z,28.80
2019-03-10T20:31:50.455Z,27.02
2019-03-10T20:36:56.022Z,25.85
2019-03-10T20:42:07.025Z,25.88
2019-03-10T20:47:11.656Z,23.90
2019-03-10T20:52:15.071Z,21.87
2019-03-10T20:57:18.752Z,28.35
2019-03-10T21:02:22.120Z,26.70
2019-03-10T21:07:26.373Z,28.67
2019-03-10T21:12:39.854Z,26.55
2019-03-10T21:17:38.273Z,29.25
2019-03-10T21:22:47.128Z,29.27
2019-03-10T21:27:52.492Z,32.27
2019-03-10T21:32:58.554Z,34.25
2019-03-10T21:38:01.936Z,33.33
2019-03-10T21:43:05.961Z,34.10
2019-03-10T21:48:15.924Z,41.30
2019-03-10T21:53:22.881Z,40.78
2019-03-10T21:58:27.930Z,38.58
2019-03-10T22:03:31.334Z,38.40
2019-03-10T22:08:39.225Z,35.13
2019-03-10T22:24:29.241Z,37.90
2019-03-10T22:29:32.554Z,34.98
2019-03-10T22:34:58.932Z,38.10
2019-03-10T22:40:04.784Z,34.85
2019-03-10T22:45:13.982Z,34.03
2019-03-10T22:50:18.515Z,33.15
2019-03-10T22:55:28.135Z,36.23
2019-03-10T23:00:48.515Z,35.55
2019-03-10T23:05:52.716Z,38.70
2019-03-10T23:10:59.583Z,38.02
2019-03-10T23:16:08.323Z,36.42
2019-03-10T23:21:15.957Z,37.63
2019-03-10T23:26:23.047Z,33.28
2019-03-10T23:31:28.032Z,33.10
2019-03-10T23:36:35.031Z,29.25
2019-03-10T23:41:39.529Z,28.42
2019-03-10T23:46:44.700Z,32.95
2019-03-10T23:51:48.694Z,27.67
2019-03-10T23:56:53.660Z,26.85
